Time;durP1;ratioP1;P1;durP2;ratioP2;P2;SDS_P1;SDS_P2;PMS_P1;PMS_P2;Temp;Humidity;BMP_temperature;BMP_pressure;BME280_temperature;BME280_humidity;BME280_pressure;Samples;Min_cycle;Max_cycle;Signal;HPM_P1;HPM_P2
2022/09/04 00:01:08;;;;;;;3.72;0.52;;;;;;;14.73;56.22;101530.84;2071700;28;31224;-67
2022/09/04 00:02:51;;;;;;;1.50;0.50;;;;;;;14.72;56.63;101517.44;2063165;28;27515;-67
2022/09/04 00:04:16;;;;;;;2.63;0.47;;;;;;;14.76;56.02;101519.97;2063616;28;20042;-67
2022/09/04 00:05:44;;;;;;;2.70;0.60;;;;;;;14.69;56.32;101518.38;2067676;28;20038;-67
2022/09/04 00:07:17;;;;;;;2.67;0.50;;;;;;;14.66;56.21;101521.16;2072771;28;20030;-67
2022/09/04 00:08:40;;;;;;;4.07;1.05;;;;;;;14.57;57.02;101516.03;2071008;28;30055;-67
2022/09/04 00:09:56;;;;;;;3.60;0.50;;;;;;;14.54;56.90;101527.81;2072145;28;23912;-66
2022/09/04 00:11:07;;;;;;;2.63;0.57;;;;;;;14.51;57.05;101531.44;2071885;28;28297;-66
2022/09/04 00:12:09;;;;;;;1.98;0.68;;;;;;;14.50;56.91;101532.41;2071835;28;20088;-68
2022/09/04 00:13:26;;;;;;;1.25;0.40;;;;;;;14.48;57.33;101523.47;2072139;28;27970;-66
2022/09/04 00:14:53;;;;;;;3.90;0.45;;;;;;;14.44;57.11;101519.09;2071393;28;31667;-68
2022/09/04 00:16:44;;;;;;;4.05;0.55;;;;;;;14.44;57.43;101532.56;2071625;28;27080;-67
2022/09/04 00:18:06;;;;;;;2.13;0.50;;;;;;;14.47;57.49;101534.31;2063491;28;33768;-67
2022/09/04 00:19:43;;;;;;;2.00;0.40;;;;;;;14.47;57.50;101527.09;2066171;28;23910;-67
2022/09/04 00:20:53;;;;;;;3.30;0.60;;;;;;;14.44;57.19;101532.56;2039037;29;31898;-67
2022/09/04 00:22:13;;;;;;;5.53;0.60;;;;;;;14.42;57.67;101536.25;2066369;28;35776;-67
2022/09/04 00:23:28;;;;;;;;;;;;;;;14.37;58.01;101536.38;2072844;28;20910;-67
2022/09/04 00:24:48;;;;;;;5.32;0.50;;;;;;;14.37;58.29;101536.38;2072657;28;21351;-67
2022/09/04 00:26:12;;;;;;;3.67;0.40;;;;;;;14.43;57.92;101546.09;2072057;28;20046;-67
2022/09/04 00:27:24;;;;;;;2.85;0.52;;;;;;;14.43;57.66;101530.81;2071767;28;27200;-67
2022/09/04 00:28:37;;;;;;;4.00;0.50;;;;;;;14.46;57.83;101538.81;2072260;28;28359;-67
2022/09/04 00:30:06;;;;;;;2.33;0.60;;;;;;;14.38;57.63;101537.28;2071356;28;33927;-67
2022/09/04 00:31:24;;;;;;;3.03;0.45;;;;;;;14.36;57.96;101542.69;2071764;28;20030;-67
2022/09/04 00:32:48;;;;;;;2.00;0.60;;;;;;;14.40;57.78;101543.50;2063747;28;20073;-67
2022/09/04 00:34:11;;;;;;;5.03;0.55;;;;;;;14.37;57.72;101541.75;2067113;28;27026;-67
2022/09/04 00:35:17;;;;;;;2.05;0.50;;;;;;;14.32;57.90;101544.59;2072176;28;20030;-67
2022/09/04 00:36:26;;;;;;;2.63;0.43;;;;;;;14.32;57.98;101547.28;2071177;28;32919;-67
2022/09/04 00:37:37;;;;;;;2.25;0.50;;;;;;;14.33;57.97;101545.47;2071381;28;27643;-67
2022/09/04 00:38:49;;;;;;;1.05;0.30;;;;;;;14.29;57.94;101547.38;2063436;28;28174;-67
2022/09/04 00:40:15;;;;;;;2.75;0.40;;;;;;;14.27;58.14;101542.97;2065754;28;32551;-67
2022/09/04 00:41:45;;;;;;;2.70;0.60;;;;;;;14.28;58.21;101547.41;2063843;28;20145;-67
2022/09/04 00:43:05;;;;;;;1.63;0.40;;;;;;;14.27;58.36;101540.28;2070462;28;32315;-66
2022/09/04 00:44:43;;;;;;;1.95;0.38;;;;;;;14.21;58.51;101556.59;2071533;28;28022;-67
2022/09/04 00:45:54;;;;;;;3.10;0.60;;;;;;;14.16;58.75;101555.84;2070501;28;37526;-67
2022/09/04 00:47:24;;;;;;;;;;;;;;;14.12;59.11;101553.25;2072022;28;27649;-67
2022/09/04 00:48:52;;;;;;;2.30;0.30;;;;;;;14.11;58.97;101561.38;2072273;28;19929;-67
2022/09/04 00:50:08;;;;;;;2.08;0.40;;;;;;;14.08;58.89;101554.25;2071035;28;37910;-67
2022/09/04 00:51:39;;;;;;;1.48;0.40;;;;;;;14.07;58.88;101557.00;2071581;28;28805;-66
2022/09/04 00:53:13;;;;;;;4.57;0.40;;;;;;;14.06;59.36;101555.22;2071224;28;29962;-68
2022/09/04 00:54:39;;;;;;;2.90;0.40;;;;;;;14.04;59.07;101566.03;2071581;28;22540;-67
2022/09/04 00:56:05;;;;;;;2.80;0.38;;;;;;;14.05;59.36;101557.03;2071955;28;28895;-66
2022/09/04 00:57:28;;;;;;;1.88;0.40;;;;;;;14.04;59.46;101560.66;2072566;28;20046;-66
2022/09/04 00:58:38;;;;;;;2.70;0.40;;;;;;;14.03;59.16;101566.97;2071646;28;32563;-66
2022/09/04 01:00:04;;;;;;;;;;;;;;;14.04;59.70;101570.53;2072334;28;20038;-67
2022/09/04 01:01:14;;;;;;;2.47;0.60;;;;;;;14.01;59.42;101559.84;2071796;28;34650;-65
2022/09/04 01:02:45;;;;;;;;;;;;;;;13.99;59.97;101569.78;2071599;28;30800;-67
2022/09/04 01:04:05;;;;;;;2.95;0.70;;;;;;;13.93;59.96;101569.00;2071847;28;31924;-67
2022/09/04 01:05:28;;;;;;;2.05;0.30;;;;;;;13.94;59.87;101564.50;2071756;28;27038;-67
2022/09/04 01:06:52;;;;;;;4.57;0.60;;;;;;;13.95;59.67;101566.28;2071072;28;37731;-67
2022/09/04 01:08:54;;;;;;;1.70;0.45;;;;;;;13.89;59.67;101571.81;2071879;28;30188;-67
2022/09/04 01:10:41;;;;;;;3.20;0.43;;;;;;;13.83;60.03;101577.38;2071835;28;33909;-67
2022/09/04 01:11:59;;;;;;;2.03;0.40;;;;;;;13.87;59.71;101571.88;2071955;28;28365;-67
2022/09/04 01:13:11;;;;;;;1.98;0.47;;;;;;;13.81;59.80;101579.22;2072016;28;23373;-67
2022/09/04 01:14:37;;;;;;;2.70;0.57;;;;;;;13.85;60.29;101571.00;2070774;28;38020;-67
2022/09/04 01:16:05;;;;;;;1.45;0.40;;;;;;;13.82;60.06;101578.28;2071920;28;20043;-67
2022/09/04 01:17:50;;;;;;;3.08;0.60;;;;;;;13.84;60.20;101577.34;2063050;28;27825;-67
2022/09/04 01:19:18;;;;;;;2.00;0.45;;;;;;;13.79;60.03;101578.38;2071589;28;31270;-68
2022/09/04 01:20:51;;;;;;;5.70;0.40;;;;;;;13.75;60.35;101575.75;2070887;28;28597;-67
2022/09/04 01:22:40;;;;;;;2.42;0.40;;;;;;;13.80;59.78;101575.66;2071633;28;28383;-67
2022/09/04 01:24:25;;;;;;;2.42;0.40;;;;;;;13.75;60.12;101583.84;2071616;28;33897;-67
2022/09/04 01:25:48;;;;;;;3.92;0.70;;;;;;;13.77;60.60;101582.94;2072346;28;20832;-67
2022/09/04 01:27:25;;;;;;;7.30;0.55;;;;;;;13.78;60.57;101584.69;2071520;28;23999;-67
2022/09/04 01:28:48;;;;;;;2.42;0.50;;;;;;;13.74;60.41;101590.13;2063300;28;30637;-67
2022/09/04 01:30:12;;;;;;;2.22;0.50;;;;;;;13.72;60.14;101591.97;2066113;28;23841;-68
2022/09/04 01:31:53;;;;;;;3.05;0.35;;;;;;;13.70;60.38;101588.44;2071355;28;31245;-68
2022/09/04 01:33:53;;;;;;;3.80;0.50;;;;;;;13.71;60.57;101590.22;2071112;28;28466;-68
2022/09/04 01:35:39;;;;;;;2.35;0.52;;;;;;;13.70;60.21;101587.56;2038219;29;20052;-68
2022/09/04 01:37:15;;;;;;;3.03;0.40;;;;;;;13.69;60.87;101586.69;2071259;28;27801;-67
2022/09/04 01:38:49;;;;;;;3.00;0.43;;;;;;;13.63;60.78;101594.91;2071445;28;30235;-68
2022/09/04 01:40:27;;;;;;;2.88;0.47;;;;;;;13.73;60.66;101576.75;2071851;28;33531;-67
2022/09/04 01:42:11;;;;;;;1.90;0.40;;;;;;;13.70;60.79;101585.75;2071324;28;22765;-67
2022/09/04 01:43:17;;;;;;;3.33;0.50;;;;;;;13.62;60.14;101587.78;2072266;28;20046;-68
2022/09/04 01:44:19;;;;;;;1.88;0.50;;;;;;;13.62;61.07;101592.25;2071578;28;27872;-67
2022/09/04 01:45:51;;;;;;;2.13;0.60;;;;;;;13.62;60.98;101589.56;2072303;28;20035;-67
2022/09/04 01:47:27;;;;;;;1.40;0.40;;;;;;;13.56;61.23;101596.00;2071366;28;37307;-67
2022/09/04 01:49:04;;;;;;;3.33;0.50;;;;;;;13.58;61.38;101594.13;2071340;28;28307;-68
2022/09/04 01:50:17;;;;;;;5.65;0.70;;;;;;;13.60;60.93;101597.66;2070351;28;23268;-67
2022/09/04 01:51:39;;;;;;;2.13;0.40;;;;;;;13.58;61.21;101598.66;2063117;28;31899;-67
2022/09/04 01:52:49;;;;;;;1.90;0.60;;;;;;;13.63;61.24;101596.72;2067547;28;28601;-67
2022/09/04 01:54:19;;;;;;;2.25;0.52;;;;;;;13.56;60.99;101596.00;2071129;28;28069;-67
2022/09/04 01:55:36;;;;;;;4.07;0.50;;;;;;;13.51;61.07;101600.59;2071626;28;20067;-67
2022/09/04 01:57:06;;;;;;;3.13;0.40;;;;;;;13.53;61.16;101590.69;2063225;28;30126;-67
2022/09/04 01:58:40;;;;;;;;;;;;;;;13.48;61.64;101596.19;2068789;28;20239;-67
2022/09/04 02:00:08;;;;;;;1.52;0.40;;;;;;;13.43;61.81;101591.84;2071639;28;23300;-67
2022/09/04 02:01:49;;;;;;;1.10;0.40;;;;;;;13.43;61.37;101595.41;2070315;28;34240;-67
2022/09/04 02:03:05;;;;;;;1.55;0.50;;;;;;;13.41;61.39;101601.75;2070515;28;29389;-67
2022/09/04 02:04:50;;;;;;;2.78;0.40;;;;;;;13.42;62.10;101611.59;2071829;28;30647;-67
2022/09/04 02:06:12;;;;;;;0.88;0.40;;;;;;;13.41;62.23;101602.63;2071840;28;20042;-67
2022/09/04 02:07:31;;;;;;;0.90;0.40;;;;;;;13.38;61.66;101607.22;2071718;28;22515;-67
2022/09/04 02:09:00;;;;;;;2.83;0.43;;;;;;;13.36;62.49;101605.44;2071791;28;24314;-68
2022/09/04 02:10:06;;;;;;;2.83;0.65;;;;;;;13.42;61.47;101598.13;2071609;28;20087;-67
2022/09/04 02:11:25;;;;;;;3.00;0.40;;;;;;;13.42;61.70;101604.38;2071389;28;20073;-67
2022/09/04 02:12:49;;;;;;;1.80;0.40;;;;;;;13.40;62.20;101594.59;2071000;28;30908;-67
2022/09/04 02:14:07;;;;;;;1.05;0.40;;;;;;;13.36;61.35;101600.03;2070869;28;29709;-67
2022/09/04 02:15:52;;;;;;;3.70;0.68;;;;;;;13.45;61.98;101606.13;2070706;28;33795;-66
2022/09/04 02:17:11;;;;;;;1.85;0.50;;;;;;;13.43;62.24;101607.97;2053935;28;36051;-67
2022/09/04 02:18:44;;;;;;;2.97;0.50;;;;;;;13.40;61.79;101610.75;2054369;28;27617;-65
2022/09/04 02:20:07;;;;;;;1.60;0.40;;;;;;;13.34;61.41;101607.28;2068785;28;29580;-67
2022/09/04 02:21:31;;;;;;;1.20;0.50;;;;;;;13.32;62.61;101603.75;2071406;28;36905;-67
2022/09/04 02:22:52;;;;;;;2.70;0.60;;;;;;;13.34;62.75;101612.66;2071880;28;28046;-68
2022/09/04 02:24:01;;;;;;;2.55;0.38;;;;;;;13.27;61.81;101600.22;2070310;28;33070;-67
2022/09/04 02:25:11;;;;;;;2.63;0.40;;;;;;;13.27;62.16;101608.31;2070981;28;24227;-67
2022/09/04 02:26:29;;;;;;;3.67;0.50;;;;;;;13.26;62.27;101603.88;2071366;28;32712;-68
2022/09/04 02:28:14;;;;;;;2.35;0.50;;;;;;;13.30;62.36;101605.56;2071375;28;20325;-67
2022/09/04 02:29:33;;;;;;;3.05;0.68;;;;;;;13.26;62.51;101611.94;2070944;28;36279;-67
2022/09/04 02:31:33;;;;;;;1.48;0.38;;;;;;;13.20;63.14;101609.38;2070499;28;29311;-67
2022/09/04 02:33:05;;;;;;;;;;;;;;;13.20;63.01;101603.13;2067761;28;20063;-67
2022/09/04 02:34:28;;;;;;;3.00;0.50;;;;;;;13.16;62.80;101603.19;2071031;28;32352;-69
2022/09/04 02:35:40;;;;;;;3.83;0.63;;;;;;;13.15;63.18;101601.44;2071211;28;27627;-68
2022/09/04 02:37:01;;;;;;;2.15;0.40;;;;;;;13.13;63.15;101597.84;2072325;28;25349;-68
2022/09/04 02:39:00;;;;;;;2.22;0.50;;;;;;;13.16;63.63;101599.63;2072295;28;25663;-68
2022/09/04 02:40:31;;;;;;;1.50;0.50;;;;;;;13.17;62.76;101594.19;2047672;28;22365;-68
2022/09/04 02:41:49;;;;;;;3.33;0.40;;;;;;;13.18;62.90;101590.56;2039714;29;29291;-66
2022/09/04 02:43:44;;;;;;;5.30;0.60;;;;;;;13.14;63.65;101593.38;2066445;28;25171;-67
2022/09/04 02:45:08;;;;;;;3.03;0.60;;;;;;;13.15;62.86;101595.13;2072368;28;20026;-66
2022/09/04 02:46:32;;;;;;;1.15;0.40;;;;;;;13.12;62.88;101597.91;2071935;28;21436;-67
2022/09/04 02:47:49;;;;;;;2.53;0.40;;;;;;;13.15;63.01;101597.81;2064338;28;22276;-67
2022/09/04 02:49:06;;;;;;;2.35;0.55;;;;;;;13.11;63.23;101588.06;2059937;28;23151;-67
2022/09/04 02:50:48;;;;;;;0.90;0.40;;;;;;;13.09;63.13;101597.97;2066247;28;35009;-67
2022/09/04 02:52:32;;;;;;;1.95;0.40;;;;;;;13.09;63.46;101600.66;2072412;28;20047;-67
2022/09/04 02:54:10;;;;;;;2.63;0.65;;;;;;;13.16;63.44;101596.91;2072191;28;35381;-67
2022/09/04 02:55:43;;;;;;;3.97;0.38;;;;;;;13.12;62.98;101601.50;2072150;28;28342;-67
2022/09/04 02:57:26;;;;;;;1.15;0.40;;;;;;;13.09;63.39;101604.22;2072768;28;27220;-67
2022/09/04 02:58:53;;;;;;;1.17;0.50;;;;;;;13.06;63.91;101596.22;2063682;28;38407;-67
2022/09/04 03:00:14;;;;;;;1.55;0.55;;;;;;;13.04;63.44;101599.88;2068039;28;23184;-67
2022/09/04 03:01:44;;;;;;;3.30;0.40;;;;;;;13.07;62.98;101602.50;2072118;28;30496;-66
2022/09/04 03:03:50;;;;;;;2.15;0.63;;;;;;;13.05;63.85;101609.72;2072019;28;33393;-67
2022/09/04 03:05:04;;;;;;;3.13;0.50;;;;;;;13.04;63.41;101610.63;2055380;28;20224;-67
2022/09/04 03:06:51;;;;;;;1.90;0.43;;;;;;;13.04;63.24;101607.94;2072442;28;22824;-67
2022/09/04 03:08:27;;;;;;;4.55;0.50;;;;;;;13.01;63.81;101614.28;2061327;28;29353;-67
2022/09/04 03:09:37;;;;;;;1.02;0.30;;;;;;;12.98;64.15;101614.34;2072103;28;21265;-67
2022/09/04 03:10:52;;;;;;;2.58;0.50;;;;;;;12.99;63.54;101608.94;2064193;28;20109;-67
2022/09/04 03:12:44;;;;;;;1.42;0.38;;;;;;;12.98;63.45;101608.97;2065761;28;20035;-67
2022/09/04 03:14:14;;;;;;;4.97;0.60;;;;;;;12.95;64.18;101612.59;2063650;28;20050;-67
2022/09/04 03:15:54;;;;;;;2.47;0.50;;;;;;;12.97;64.31;101605.41;2068232;28;23388;-67
2022/09/04 03:17:07;;;;;;;5.00;0.40;;;;;;;12.96;64.36;101616.19;2063984;28;36895;-67
2022/09/04 03:18:55;;;;;;;2.65;0.40;;;;;;;12.94;64.37;101605.47;2065941;28;20054;-67
2022/09/04 03:20:08;;;;;;;3.33;0.50;;;;;;;12.90;64.15;101608.25;2063374;28;26729;-67
2022/09/04 03:21:19;;;;;;;2.15;0.40;;;;;;;12.89;64.43;101610.06;2070916;28;33055;-67
2022/09/04 03:22:47;;;;;;;1.50;0.50;;;;;;;12.85;64.14;101600.31;2072007;28;31507;-66
2022/09/04 03:24:07;;;;;;;2.55;0.50;;;;;;;12.86;64.58;101607.44;2072300;28;32795;-67
2022/09/04 03:25:36;;;;;;;1.80;0.50;;;;;;;12.84;64.70;101609.28;2072404;28;31280;-67
2022/09/04 03:26:47;;;;;;;1.60;0.50;;;;;;;12.87;64.30;101597.59;2072832;28;20148;-65
2022/09/04 03:27:51;;;;;;;2.33;0.50;;;;;;;12.82;64.77;101602.16;2072181;28;20045;-68
2022/09/04 03:29:41;;;;;;;1.60;0.40;;;;;;;12.77;64.52;101602.25;2072366;28;23228;-67
2022/09/04 03:30:44;;;;;;;2.22;0.50;;;;;;;12.73;64.41;101601.44;2072773;28;29281;-67
2022/09/04 03:32:09;;;;;;;1.30;0.40;;;;;;;12.74;64.46;101603.22;2072954;28;20043;-67
2022/09/04 03:33:48;;;;;;;2.30;0.60;;;;;;;12.76;64.65;101603.19;2072960;28;24232;-67
2022/09/04 03:35:21;;;;;;;2.78;0.30;;;;;;;12.77;64.69;101604.94;2071227;28;31137;-66
2022/09/04 03:36:47;;;;;;;1.30;0.40;;;;;;;12.71;64.90;101603.28;2072261;28;25815;-67
2022/09/04 03:38:18;;;;;;;2.97;0.40;;;;;;;12.70;65.58;101608.69;2071762;28;29295;-67
2022/09/04 03:39:47;;;;;;;1.92;0.50;;;;;;;12.68;64.69;101613.22;2072090;28;32165;-67
2022/09/04 03:41:11;;;;;;;1.98;0.40;;;;;;;12.67;65.45;101609.66;2071380;28;29505;-67
2022/09/04 03:43:05;;;;;;;3.08;0.40;;;;;;;12.68;65.13;101615.88;2071992;28;28836;-67
2022/09/04 03:44:31;;;;;;;2.03;0.43;;;;;;;12.65;65.45;101618.63;2072196;28;25810;-67
2022/09/04 03:46:00;;;;;;;1.02;0.50;;;;;;;12.64;65.50;101628.50;2072074;28;24494;-67
2022/09/04 03:47:31;;;;;;;1.38;0.57;;;;;;;12.58;65.80;101632.22;2071839;28;29341;-67
2022/09/04 03:49:26;;;;;;;1.20;0.40;;;;;;;12.56;65.67;101634.03;2071798;28;31093;-67
2022/09/04 03:50:42;;;;;;;0.95;0.50;;;;;;;12.53;65.92;101628.72;2071322;28;25789;-67
2022/09/04 03:52:09;;;;;;;3.20;0.30;;;;;;;12.54;66.04;101634.97;2063433;28;30087;-67
2022/09/04 03:53:31;;;;;;;1.33;0.30;;;;;;;12.55;65.77;101643.00;2068476;28;35908;-67
2022/09/04 03:55:02;;;;;;;1.77;0.60;;;;;;;12.60;65.98;101635.75;2072965;28;20031;-67
2022/09/04 03:56:46;;;;;;;1.33;0.45;;;;;;;12.56;65.78;101628.66;2073082;28;20181;-67
2022/09/04 03:58:07;;;;;;;2.10;0.40;;;;;;;12.53;65.59;101634.09;2072303;28;26932;-67
2022/09/04 03:59:55;;;;;;;5.38;0.50;;;;;;;12.49;66.15;101634.16;2072769;28;20042;-67
2022/09/04 04:01:29;;;;;;;1.77;0.40;;;;;;;12.48;66.16;101638.66;2063298;28;36241;-67
2022/09/04 04:03:02;;;;;;;2.58;0.57;;;;;;;12.49;66.18;101643.13;2068540;28;33422;-67
2022/09/04 04:04:34;;;;;;;6.57;0.50;;;;;;;12.46;65.98;101643.19;2072688;28;29334;-67
2022/09/04 04:06:04;;;;;;;0.80;0.50;;;;;;;12.49;65.87;101643.13;2070541;28;37516;-67
2022/09/04 04:07:37;;;;;;;1.20;0.30;;;;;;;12.45;65.95;101645.91;2072734;28;21334;-67
2022/09/04 04:08:41;;;;;;;3.42;0.60;;;;;;;12.48;65.96;101651.22;2073119;28;20575;-67
2022/09/04 04:10:21;;;;;;;2.03;0.60;;;;;;;12.47;66.17;101654.81;2071815;28;29806;-66
2022/09/04 04:12:00;;;;;;;1.15;0.40;;;;;;;12.52;66.50;101653.81;2072478;28;28314;-67
2022/09/04 04:13:18;;;;;;;3.67;0.35;;;;;;;12.49;66.54;101664.63;2061721;28;33355;-66
2022/09/04 04:14:52;;;;;;;1.65;0.50;;;;;;;12.44;66.95;101661.13;2072179;28;33894;-66
2022/09/04 04:16:29;;;;;;;2.03;0.40;;;;;;;12.42;66.73;101662.97;2072376;28;20377;-67
2022/09/04 04:18:01;;;;;;;1.23;0.40;;;;;;;12.44;67.23;101671.88;2071541;28;30578;-67
2022/09/04 04:19:46;;;;;;;2.20;0.45;;;;;;;12.42;67.26;101668.34;2071569;28;32563;-67
2022/09/04 04:21:26;;;;;;;1.27;0.60;;;;;;;12.47;67.30;101665.56;2063077;28;32455;-67
2022/09/04 04:22:47;;;;;;;1.92;0.50;;;;;;;12.54;66.83;101669.88;2052309;28;23612;-67
2022/09/04 04:24:27;;;;;;;1.83;0.50;;;;;;;12.56;66.84;101670.75;2071205;28;28080;-67
2022/09/04 04:25:57;;;;;;;5.10;0.68;;;;;;;12.57;66.18;101673.41;2071535;28;32373;-67
2022/09/04 04:27:28;;;;;;;2.97;0.70;;;;;;;12.59;66.46;101666.19;2072154;28;28281;-66
2022/09/04 04:29:07;;;;;;;1.92;0.60;;;;;;;12.61;66.02;101671.53;2070476;28;23800;-67
2022/09/04 04:30:16;;;;;;;4.10;0.68;;;;;;;12.62;66.08;101669.75;2071790;28;32019;-67
2022/09/04 04:31:46;;;;;;;2.50;0.70;;;;;;;12.63;66.67;101672.41;2071359;28;30424;-67
2022/09/04 04:33:20;;;;;;;4.03;0.52;;;;;;;12.63;66.45;101666.16;2071264;28;31191;-67
2022/09/04 04:34:44;;;;;;;1.63;0.50;;;;;;;12.65;66.55;101669.69;2072155;28;20329;-68
2022/09/04 04:36:05;;;;;;;1.75;0.60;;;;;;;12.64;66.09;101662.56;2071388;28;40997;-67
2022/09/04 04:37:31;;;;;;;2.40;0.82;;;;;;;12.63;66.52;101663.47;2072245;28;20038;-68
2022/09/04 04:39:25;;;;;;;2.08;0.50;;;;;;;12.61;66.78;101674.22;2071678;28;25777;-68
2022/09/04 04:40:58;;;;;;;4.70;0.57;;;;;;;12.60;66.37;101667.09;2058104;28;20177;-68
2022/09/04 04:42:30;;;;;;;2.20;0.65;;;;;;;12.59;66.36;101665.31;2071873;28;32675;-68
2022/09/04 04:44:11;;;;;;;2.75;0.68;;;;;;;12.59;66.56;101666.19;2072434;28;20030;-67
2022/09/04 04:47:26;;;;;;;3.33;0.60;;;;;;;12.60;66.47;101667.09;2071645;28;28466;-66
2022/09/04 04:49:10;;;;;;;1.00;0.50;;;;;;;12.60;66.80;101673.34;2071819;28;23229;-67
2022/09/04 04:50:39;;;;;;;2.63;0.60;;;;;;;12.60;66.58;101673.34;2071451;28;35638;-67
2022/09/04 04:52:25;;;;;;;1.55;0.65;;;;;;;12.60;66.40;101676.03;2071466;28;20088;-67
2022/09/04 04:54:01;;;;;;;2.22;0.63;;;;;;;12.63;66.40;101690.31;2063259;28;20121;-67
2022/09/04 04:55:24;;;;;;;1.48;0.60;;;;;;;12.64;66.55;101678.69;2068523;28;25621;-67
2022/09/04 04:56:44;;;;;;;1.35;0.52;;;;;;;12.66;66.37;101676.84;2071144;28;26650;-67
2022/09/04 04:58:04;;;;;;;1.67;0.60;;;;;;;12.66;66.56;101683.09;2071241;28;29372;-67
2022/09/04 04:59:47;;;;;;;2.17;0.60;;;;;;;12.68;65.81;101680.38;2071061;28;21043;-67
2022/09/04 05:01:25;;;;;;;1.50;0.77;;;;;;;12.69;66.27;101679.47;2071566;28;32688;-67
2022/09/04 05:02:50;;;;;;;2.35;0.70;;;;;;;12.69;65.98;101685.72;2072003;28;24094;-66
2022/09/04 05:04:09;;;;;;;1.52;0.57;;;;;;;12.70;66.42;101681.22;2071863;28;29819;-67
2022/09/04 05:05:54;;;;;;;2.20;0.60;;;;;;;12.72;66.08;101687.44;2072375;28;20164;-66
2022/09/04 05:07:11;;;;;;;4.53;0.60;;;;;;;12.72;65.76;101687.44;2071239;28;26286;-66
2022/09/04 05:09:01;;;;;;;3.95;0.60;;;;;;;12.71;66.18;101691.94;2071584;28;29952;-68
2022/09/04 05:10:23;;;;;;;2.05;0.50;;;;;;;12.72;65.84;101692.81;2063347;28;20110;-69
2022/09/04 05:11:58;;;;;;;1.90;0.60;;;;;;;12.71;66.35;101691.06;2071420;28;28034;-67
2022/09/04 05:13:51;;;;;;;5.22;0.75;;;;;;;12.70;65.81;101691.97;2072121;28;20116;-66
2022/09/04 05:15:22;;;;;;;4.15;0.70;;;;;;;12.69;66.30;101693.78;2068376;28;29899;-67
2022/09/04 05:16:54;;;;;;;3.90;0.65;;;;;;;12.69;66.49;101704.53;2071869;28;26803;-69
2022/09/04 05:18:10;;;;;;;1.98;0.73;;;;;;;12.71;65.73;101696.44;2072342;28;20177;-69
2022/09/04 05:19:40;;;;;;;2.13;0.70;;;;;;;12.71;66.20;101697.31;2070914;28;30195;-65
2022/09/04 05:21:18;;;;;;;1.48;0.73;;;;;;;12.75;65.83;101703.53;2070669;28;25284;-66
2022/09/04 05:22:38;;;;;;;4.22;0.60;;;;;;;12.76;65.78;101705.31;2071431;28;41904;-67
2022/09/04 05:23:55;;;;;;;1.52;0.60;;;;;;;12.80;65.91;101704.31;2063388;28;21368;-67
2022/09/04 05:25:24;;;;;;;4.60;0.50;;;;;;;12.87;65.69;101708.66;2064781;28;33437;-67
2022/09/04 05:26:35;;;;;;;2.35;0.60;;;;;;;12.95;64.94;101704.00;2071366;28;34153;-67
2022/09/04 05:28:32;;;;;;;2.40;0.73;;;;;;;13.26;63.74;101700.69;2071240;28;40593;-68
2022/09/04 05:30:01;;;;;;;5.20;0.60;;;;;;;13.34;63.46;101709.47;2071798;28;24400;-67
2022/09/04 05:31:34;;;;;;;2.97;0.60;;;;;;;13.44;63.69;101711.97;2071021;28;34281;-66
2022/09/04 05:32:42;;;;;;;1.48;0.57;;;;;;;13.36;63.41;101712.13;2072138;28;20144;-66
2022/09/04 05:34:15;;;;;;;6.53;0.70;;;;;;;13.37;63.70;101711.22;2071640;28;34210;-67
2022/09/04 05:35:23;;;;;;;1.58;0.60;;;;;;;13.48;63.43;101711.00;2052389;28;20090;-70
2022/09/04 05:36:53;;;;;;;3.72;0.70;;;;;;;13.68;62.74;101718.59;2061836;28;25760;-69
2022/09/04 05:38:09;;;;;;;4.03;0.57;;;;;;;13.63;62.50;101715.13;2071447;28;20863;-69
2022/09/04 05:39:26;;;;;;;1.67;0.55;;;;;;;13.87;62.01;101714.56;2070877;28;33574;-69
2022/09/04 05:41:15;;;;;;;5.13;0.75;;;;;;;14.24;60.70;101715.44;2072355;28;21006;-70
2022/09/04 05:42:58;;;;;;;4.65;0.70;;;;;;;15.04;57.80;101724.06;2053975;28;25951;-67
2022/09/04 05:44:32;;;;;;;2.38;0.57;;;;;;;15.43;56.66;101724.69;2070766;28;33639;-68
2022/09/04 05:46:40;;;;;;;4.60;0.57;;;;;;;15.25;56.07;101715.34;2070568;28;23817;-69
2022/09/04 05:48:31;;;;;;;2.47;0.63;;;;;;;16.03;54.60;101724.63;2061266;28;21873;-68
2022/09/04 05:50:32;;;;;;;1.70;0.68;;;;;;;16.55;53.01;101719.25;2054846;28;32628;-70
2022/09/04 05:51:51;;;;;;;2.70;0.70;;;;;;;16.44;52.33;101724.13;2062117;28;25411;-70
2022/09/04 05:53:30;;;;;;;2.90;0.70;;;;;;;16.85;51.60;101721.81;2066250;28;20884;-68
2022/09/04 05:55:03;;;;;;;1.90;0.60;;;;;;;17.43;50.62;101719.63;2062731;28;23005;-69
2022/09/04 05:56:36;;;;;;;1.50;0.50;;;;;;;18.29;47.33;101724.25;2054760;28;20080;-69
2022/09/04 05:57:57;;;;;;;2.17;0.82;;;;;;;18.72;47.42;101726.94;2059328;28;27102;-70
2022/09/04 05:59:45;;;;;;;2.13;0.57;;;;;;;18.91;46.67;101729.72;2063401;28;22948;-69
2022/09/04 06:01:19;;;;;;;2.67;0.50;;;;;;;18.28;47.83;101733.31;2069580;28;20789;-68
2022/09/04 06:03:01;;;;;;;1.15;0.50;;;;;;;19.03;45.58;101726.44;2071019;28;21086;-70
2022/09/04 06:04:37;;;;;;;3.28;0.70;;;;;;;19.57;44.98;101725.75;2070984;28;34584;-69
2022/09/04 06:06:46;;;;;;;2.03;0.60;;;;;;;19.13;44.99;101728.72;2070827;28;33598;-69
2022/09/04 06:08:32;;;;;;;1.00;0.50;;;;;;;19.45;44.60;101736.28;2063492;28;33546;-68
2022/09/04 06:09:56;;;;;;;3.17;0.50;;;;;;;19.45;44.38;101744.41;2070729;28;30967;-70
2022/09/04 06:11:43;;;;;;;1.55;0.60;;;;;;;19.77;43.39;101750.16;2072321;28;22149;-70
2022/09/04 06:13:02;;;;;;;2.05;0.60;;;;;;;19.65;43.77;101746.19;2072390;28;29915;-66
2022/09/04 06:14:33;;;;;;;3.17;0.60;;;;;;;20.31;42.17;101738.44;2073084;28;20085;-68
2022/09/04 06:16:04;;;;;;;1.67;0.45;;;;;;;20.43;42.56;101745.97;2072902;28;30520;-67
2022/09/04 06:17:35;;;;;;;3.08;0.70;;;;;;;20.43;41.40;101740.53;2072206;28;31995;-67
2022/09/04 06:19:10;;;;;;;2.58;0.50;;;;;;;19.85;42.48;101752.53;2072291;28;38152;-68
2022/09/04 06:20:38;;;;;;;1.70;0.70;;;;;;;20.49;41.94;101748.38;2072214;28;24767;-67
2022/09/04 06:22:22;;;;;;;2.65;0.60;;;;;;;20.31;41.56;101752.91;2072241;28;20045;-64
2022/09/04 06:23:40;;;;;;;3.22;0.80;;;;;;;20.08;43.58;101762.25;2071750;28;27419;-68
2022/09/04 06:25:21;;;;;;;2.88;0.60;;;;;;;20.88;40.76;101755.44;2054897;28;38132;-69
2022/09/04 06:27:12;;;;;;;2.28;0.60;;;;;;;20.92;41.36;101759.75;2069157;28;24565;-66
2022/09/04 06:28:44;;;;;;;1.75;0.50;;;;;;;21.95;39.22;101752.31;2073101;28;20061;-69
2022/09/04 06:30:09;;;;;;;2.22;0.82;;;;;;;22.07;39.84;101748.88;2063482;28;26885;-68
2022/09/04 06:31:44;;;;;;;2.95;0.60;;;;;;;22.72;38.12;101747.75;2064448;28;22800;-69
2022/09/04 06:33:17;;;;;;;2.05;0.40;;;;;;;22.39;37.67;101757.91;2072194;28;29436;-69
2022/09/04 06:34:28;;;;;;;2.05;0.88;;;;;;;23.19;37.34;101758.50;2071919;28;28360;-71
2022/09/04 06:35:36;;;;;;;2.20;0.52;;;;;;;22.29;37.99;101762.19;2062986;28;27371;-69
2022/09/04 06:37:06;;;;;;;3.60;0.60;;;;;;;22.60;37.52;101755.75;2064771;28;24602;-68
2022/09/04 06:38:28;;;;;;;1.60;0.75;;;;;;;23.20;36.87;101754.81;2072756;28;23896;-68
2022/09/04 06:39:50;;;;;;;2.55;0.70;;;;;;;22.57;37.08;101755.06;2071890;28;37925;-67
2022/09/04 06:41:40;;;;;;;1.75;0.50;;;;;;;22.22;37.95;101756.16;2072230;28;33254;-70
2022/09/04 06:43:19;;;;;;;3.22;0.70;;;;;;;21.87;38.75;101750.91;2039116;29;20041;-70
2022/09/04 06:44:45;;;;;;;1.58;0.82;;;;;;;23.07;36.90;101753.81;2054861;28;28511;-70
2022/09/04 06:46:14;;;;;;;0.93;0.55;;;;;;;23.09;36.87;101745.53;2070838;28;26939;-71
2022/09/04 06:47:35;;;;;;;;;;;;;;;22.82;36.98;101751.69;2072485;28;27245;-71
2022/09/04 06:49:08;;;;;;;;;;;;;;;22.63;37.37;101754.66;2072995;28;28160;-70
2022/09/04 06:50:43;;;;;;;4.07;0.90;;;;;;;22.92;37.31;101750.16;2071755;28;37526;-71
2022/09/04 06:52:18;;;;;;;3.30;0.90;;;;;;;22.77;37.23;101749.25;2072069;28;32512;-70
2022/09/04 06:53:37;;;;;;;2.40;1.17;;;;;;;21.27;39.61;101756.09;2072909;28;20049;-69
2022/09/04 06:54:59;;;;;;;4.20;0.88;;;;;;;22.24;38.31;101762.41;2072415;28;29467;-71
2022/09/04 06:56:33;;;;;;;1.75;0.70;;;;;;;22.62;37.67;101758.38;2071684;28;41868;-67
2022/09/04 06:57:53;;;;;;;3.03;0.82;;;;;;;21.97;38.54;101759.44;2072719;28;20116;-68